Time;durP1;ratioP1;P1;durP2;ratioP2;P2;SDS_P1;SDS_P2;PMS_P1;PMS_P2;Temp;Humidity;BMP_temperature;BMP_pressure;BME280_temperature;BME280_humidity;BME280_pressure;Samples;Min_cycle;Max_cycle;Signal;HPM_P1;HPM_P2
2021/11/24 00:00:16;;;;;;;2.97;0.82;;;;;;;5.71;55.82;102659.78;4983928;28;20025;-70
2021/11/24 00:02:41;;;;;;;2.47;0.52;;;;;;;5.59;55.63;102663.13;4999156;28;20115;-69
2021/11/24 00:05:07;;;;;;;5.03;0.40;;;;;;;5.44;56.12;102654.34;5002195;28;20033;-71
2021/11/24 00:07:32;;;;;;;2.22;0.63;;;;;;;5.39;56.63;102657.72;4982804;28;20538;-72
2021/11/24 00:09:58;;;;;;;1.80;0.70;;;;;;;5.49;56.21;102658.72;4999934;28;20038;-69
2021/11/24 00:12:23;;;;;;;1.90;0.85;;;;;;;5.38;57.19;102656.88;4983947;28;20041;-69
2021/11/24 00:14:49;;;;;;;1.77;0.60;;;;;;;5.56;56.64;102653.59;5001365;28;20026;-71
2021/11/24 00:17:16;;;;;;;1.42;0.70;;;;;;;5.59;56.52;102651.03;4983336;28;20401;-68
2021/11/24 00:19:42;;;;;;;6.15;0.82;;;;;;;5.69;56.16;102645.94;5001897;28;20061;-69
2021/11/24 00:22:07;;;;;;;1.58;0.70;;;;;;;5.82;56.13;102653.84;4998755;28;20089;-70
2021/11/24 00:24:33;;;;;;;3.78;0.88;;;;;;;5.97;55.58;102655.69;4999796;28;20131;-70
2021/11/24 00:26:59;;;;;;;6.13;1.15;;;;;;;5.96;55.63;102661.72;4999920;28;20057;-68
2021/11/24 00:29:25;;;;;;;2.45;1.02;;;;;;;6.00;55.55;102658.28;4983617;28;20410;-68
2021/11/24 00:31:50;;;;;;;1.88;0.60;;;;;;;6.04;55.22;102654.00;4981631;28;20038;-68
2021/11/24 00:34:16;;;;;;;2.03;0.50;;;;;;;6.08;55.67;102655.75;5001128;28;20092;-68
2021/11/24 00:36:42;;;;;;;2.88;0.80;;;;;;;6.13;55.33;102653.19;4999501;28;20033;-68
2021/11/24 00:39:07;;;;;;;1.75;0.30;;;;;;;6.09;55.22;102647.13;5001820;28;20091;-68
2021/11/24 00:41:32;;;;;;;6.95;0.63;;;;;;;6.04;54.53;102644.50;4982165;28;20124;-68
2021/11/24 00:43:58;;;;;;;1.88;0.95;;;;;;;5.83;55.28;102639.13;5000756;28;20049;-69
2021/11/24 00:46:23;;;;;;;3.17;0.80;;;;;;;5.71;55.24;102644.22;4984353;28;20203;-68
2021/11/24 00:48:49;;;;;;;3.78;1.02;;;;;;;5.55;55.32;102643.22;4984086;28;20037;-69
2021/11/24 00:51:15;;;;;;;2.40;0.93;;;;;;;5.52;55.24;102641.44;4996982;23;20053;-90
2021/11/24 00:53:40;;;;;;;3.85;0.90;;;;;;;5.36;55.20;102636.97;5003553;28;20125;-90
2021/11/24 00:56:06;;;;;;;2.83;1.00;;;;;;;5.15;55.79;102633.31;5006147;28;20034;-91
2021/11/24 00:58:32;;;;;;;2.20;1.00;;;;;;;5.25;55.31;102627.34;5003217;28;20050;-91
2021/11/24 01:00:57;;;;;;;3.13;1.00;;;;;;;5.22;55.66;102626.47;5010060;28;20037;-90
2021/11/24 01:03:23;;;;;;;4.82;1.25;;;;;;;5.23;55.55;102623.91;4992878;28;20042;-90
2021/11/24 01:05:49;;;;;;;3.90;1.05;;;;;;;5.18;56.08;102627.28;5022641;28;20406;-91
2021/11/24 01:08:16;;;;;;;5.35;1.08;;;;;;;5.12;56.42;102625.47;4989043;28;20061;-90
2021/11/24 01:10:44;;;;;;;5.45;1.42;;;;;;;5.30;55.83;102616.16;5007071;28;20038;-90
2021/11/24 01:13:11;;;;;;;5.63;1.17;;;;;;;5.13;56.56;102624.63;4987867;28;20456;-90
2021/11/24 01:15:37;;;;;;;8.48;1.65;;;;;;;5.36;56.03;102627.47;4995922;28;20045;-94
2021/11/24 01:18:03;;;;;;;4.50;1.42;;;;;;;5.36;55.89;102626.59;5016474;28;20101;-92
2021/11/24 01:20:30;;;;;;;3.72;1.52;;;;;;;5.56;55.59;102624.19;4992658;28;20029;-89
2021/11/24 01:22:56;;;;;;;3.83;1.33;;;;;;;5.58;55.79;102628.53;5001154;28;20094;-91
2021/11/24 01:25:21;;;;;;;2.25;1.33;;;;;;;5.63;55.56;102624.25;5006862;28;20076;-90
2021/11/24 01:27:47;;;;;;;6.32;1.63;;;;;;;5.56;55.57;102619.88;4986801;28;20042;-90
2021/11/24 01:30:13;;;;;;;4.97;1.10;;;;;;;5.67;55.46;102623.41;5009159;28;20103;-89
2021/11/24 01:32:39;;;;;;;4.28;1.67;;;;;;;5.51;55.89;102620.69;5001295;28;20054;-93
2021/11/24 01:35:06;;;;;;;4.78;1.35;;;;;;;5.62;55.49;102619.94;4986764;28;20040;-90
2021/11/24 01:37:32;;;;;;;5.07;1.63;;;;;;;5.50;55.24;102616.34;4988326;28;20042;-89
2021/11/24 01:39:59;;;;;;;4.10;1.50;;;;;;;5.58;55.11;102612.97;5008257;28;20044;-90
2021/11/24 01:42:24;;;;;;;2.67;1.55;;;;;;;5.56;55.15;102606.03;4992600;28;20080;-92
2021/11/24 01:44:50;;;;;;;3.63;1.25;;;;;;;5.51;55.54;102608.59;4995633;28;20034;-89
2021/11/24 01:47:16;;;;;;;1.85;1.25;;;;;;;5.60;55.16;102605.22;4987873;28;20048;-90
2021/11/24 01:49:42;;;;;;;7.97;1.13;;;;;;;5.42;55.47;102600.72;4992641;28;20065;-92
2021/11/24 01:52:08;;;;;;;2.38;1.05;;;;;;;5.22;56.17;102598.81;5033498;28;20038;-91
2021/11/24 01:54:33;;;;;;;4.65;1.13;;;;;;;5.25;55.63;102593.63;5039040;28;20447;-91
2021/11/24 01:57:00;;;;;;;2.00;1.35;;;;;;;4.94;56.55;102596.78;5000743;28;20038;-94
2021/11/24 01:59:26;;;;;;;1.40;1.20;;;;;;;5.11;56.22;102590.06;5010608;28;20042;-90
2021/11/24 02:01:52;;;;;;;2.45;1.08;;;;;;;5.15;56.10;102586.66;4998677;28;20061;-90
2021/11/24 02:04:18;;;;;;;6.03;1.50;;;;;;;5.29;56.01;102593.69;5002324;28;20053;-91
2021/11/24 02:06:48;;;;;;;1.92;1.40;;;;;;;5.21;55.94;102581.53;4985032;28;20042;-90
2021/11/24 02:09:14;;;;;;;13.30;2.05;;;;;;;4.97;56.56;102582.13;5007105;28;20378;-91
2021/11/24 02:11:42;;;;;;;3.00;1.70;;;;;;;4.96;57.13;102580.38;5008134;28;20044;-87
2021/11/24 02:14:09;;;;;;;13.80;2.28;;;;;;;5.22;56.27;102583.25;4986830;28;20026;-90
2021/11/24 02:16:49;;;;;;;6.05;2.55;;;;;;;5.15;56.24;102576.28;5017051;28;20490;-90
2021/11/24 02:19:15;;;;;;;5.47;2.22;;;;;;;5.33;55.76;102566.94;5003451;28;20206;-91
2021/11/24 02:21:45;;;;;;;6.10;2.80;;;;;;;5.37;56.36;102563.50;5004531;28;20045;-88
2021/11/24 02:24:11;;;;;;;14.82;1.55;;;;;;;4.60;58.32;102562.69;4987310;28;20034;-90
2021/11/24 02:26:37;;;;;;;11.57;2.05;;;;;;;4.46;58.46;102561.66;4998570;28;20049;-90
2021/11/24 02:29:03;;;;;;;17.58;2.50;;;;;;;4.95;57.60;102546.72;5005233;28;20133;-92
2021/11/24 02:31:29;;;;;;;17.15;1.92;;;;;;;5.24;56.57;102550.44;5008778;28;20033;-89
2021/11/24 02:33:56;;;;;;;10.95;1.92;;;;;;;5.03;56.96;102545.03;5003512;28;20052;-91
2021/11/24 02:36:23;;;;;;;3.92;2.08;;;;;;;5.07;57.12;102545.94;5004146;28;20038;-91
2021/11/24 02:38:49;;;;;;;4.88;1.60;;;;;;;5.02;57.13;102535.53;4985787;28;20411;-90
2021/11/24 02:41:14;;;;;;;3.33;2.13;;;;;;;5.22;56.46;102546.97;5015587;28;20030;-90
2021/11/24 02:43:40;;;;;;;2.25;1.60;;;;;;;5.18;56.19;102533.97;4986396;28;20310;-89
2021/11/24 02:46:06;;;;;;;2.80;1.73;;;;;;;5.12;56.19;102537.34;4987445;28;20391;-90
2021/11/24 02:48:32;;;;;;;4.53;1.92;;;;;;;5.24;56.10;102540.06;4985097;28;20033;-92
2021/11/24 02:50:58;;;;;;;2.08;1.27;;;;;;;5.28;55.95;102542.69;4995083;28;20132;-91
2021/11/24 02:53:29;;;;;;;4.43;1.42;;;;;;;5.14;56.50;102534.78;4987276;28;20652;-91
2021/11/24 02:55:55;;;;;;;5.13;1.50;;;;;;;5.28;56.52;102540.09;4978758;28;20034;-90
2021/11/24 02:58:21;;;;;;;1.88;1.15;;;;;;;5.22;56.56;102531.41;4986532;28;20041;-91
2021/11/24 03:00:48;;;;;;;2.17;1.02;;;;;;;5.13;56.70;102536.50;5001653;28;20252;-88
2021/11/24 03:03:13;;;;;;;2.65;1.25;;;;;;;5.30;56.01;102530.59;4999057;28;20038;-93
2021/11/24 03:05:39;;;;;;;2.00;1.50;;;;;;;5.03;57.03;102527.78;4987005;28;20041;-89
2021/11/24 03:08:05;;;;;;;3.05;1.23;;;;;;;4.88;57.63;102519.84;5012846;28;20041;-94
2021/11/24 03:10:32;;;;;;;2.22;0.95;;;;;;;4.62;58.82;102516.94;4997805;28;20045;-91
2021/11/24 03:12:59;;;;;;;5.35;1.20;;;;;;;4.78;57.73;102513.66;5016854;28;20045;-90
2021/11/24 03:15:25;;;;;;;3.72;1.10;;;;;;;5.13;57.17;102520.97;5005889;28;20102;-89
2021/11/24 03:17:50;;;;;;;2.55;1.27;;;;;;;5.24;57.08;102508.97;5009968;28;20053;-90
2021/11/24 03:20:16;;;;;;;2.45;1.98;;;;;;;5.02;58.25;102512.22;5008971;28;20512;-90
2021/11/24 03:22:42;;;;;;;4.07;2.40;;;;;;;5.26;57.58;102511.56;4988898;28;20101;-91
2021/11/24 03:25:09;;;;;;;4.53;2.75;;;;;;;5.30;57.49;102499.47;4990375;28;20037;-92
2021/11/24 03:27:39;;;;;;;4.38;2.40;;;;;;;5.47;57.13;102497.91;5000902;28;20050;-92
2021/11/24 03:30:11;;;;;;;4.63;2.28;;;;;;;5.31;57.53;102503.84;5007245;28;20038;-91
2021/11/24 03:32:37;;;;;;;6.93;2.80;;;;;;;5.38;57.66;102500.44;5025169;28;20048;-90
2021/11/24 03:35:04;;;;;;;4.13;2.08;;;;;;;5.42;57.44;102491.81;4989784;28;20029;-89
2021/11/24 03:37:29;;;;;;;4.50;2.72;;;;;;;5.65;56.55;102495.41;5020342;28;20046;-90
2021/11/24 03:39:55;;;;;;;5.38;2.40;;;;;;;5.46;57.20;102498.78;4989738;28;20043;-90
2021/11/24 03:42:21;;;;;;;4.82;2.95;;;;;;;5.63;56.77;102502.31;5008527;28;20060;-91
2021/11/24 03:44:47;;;;;;;5.25;2.63;;;;;;;5.27;57.20;102504.66;5005430;28;20033;-92
2021/11/24 03:47:13;;;;;;;4.75;2.92;;;;;;;5.66;56.47;102499.78;5012394;28;20045;-92
2021/11/24 03:49:39;;;;;;;6.72;2.95;;;;;;;5.71;55.90;102497.19;5005635;28;20132;-91
2021/11/24 03:52:05;;;;;;;5.10;2.78;;;;;;;5.65;56.04;102490.22;5001701;28;20513;-90
2021/11/24 03:54:31;;;;;;;5.43;3.00;;;;;;;5.66;56.08;102484.22;5011381;28;20006;-93
2021/11/24 03:56:56;;;;;;;5.55;3.28;;;;;;;5.45;56.39;102481.47;4986950;28;20100;-91
2021/11/24 03:59:22;;;;;;;8.10;2.50;;;;;;;5.44;56.61;102475.41;5007471;28;20035;-90
2021/11/24 04:01:48;;;;;;;5.68;2.80;;;;;;;5.45;56.05;102479.72;5018545;28;20256;-90
2021/11/24 04:04:13;;;;;;;5.70;3.03;;;;;;;5.46;56.09;102485.81;4988897;28;20518;-92
2021/11/24 04:06:39;;;;;;;5.80;3.25;;;;;;;5.41;55.78;102479.69;4986521;28;20382;-92
2021/11/24 04:09:05;;;;;;;4.38;2.92;;;;;;;5.41;55.89;102474.50;4995455;28;20038;-90
2021/11/24 04:11:31;;;;;;;8.05;2.60;;;;;;;5.06;56.72;102482.88;5002542;28;20383;-89
2021/11/24 04:13:57;;;;;;;5.85;2.63;;;;;;;5.23;56.19;102470.94;5003828;28;20046;-89
2021/11/24 04:16:23;;;;;;;3.92;2.25;;;;;;;5.31;55.76;102467.53;4988291;28;20474;-91
2021/11/24 04:18:49;;;;;;;7.28;2.63;;;;;;;5.07;56.61;102473.38;4988976;28;20499;-91
2021/11/24 04:21:16;;;;;;;5.00;2.30;;;;;;;5.12;56.08;102469.97;5007726;28;20065;-90
2021/11/24 04:23:42;;;;;;;4.57;2.90;;;;;;;5.15;56.17;102467.41;5021833;28;20045;-90
2021/11/24 04:26:08;;;;;;;5.15;3.20;;;;;;;5.21;55.90;102472.66;5008904;28;20034;-93
2021/11/24 04:28:34;;;;;;;4.35;3.28;;;;;;;5.15;55.79;102451.84;4991222;28;20050;-91
2021/11/24 04:31:02;;;;;;;5.30;3.17;;;;;;;5.12;55.96;102461.31;5020315;28;20257;-91
2021/11/24 04:33:28;;;;;;;7.05;2.90;;;;;;;4.93;56.23;102455.13;5012350;28;20038;-90
2021/11/24 04:35:54;;;;;;;4.00;2.38;;;;;;;5.03;55.48;102454.34;4992160;28;20383;-91
2021/11/24 04:38:19;;;;;;;4.35;2.30;;;;;;;4.88;55.83;102442.13;4988826;28;20042;-91
2021/11/24 04:40:45;;;;;;;3.55;2.28;;;;;;;4.88;55.41;102447.31;5024024;28;20052;-89
2021/11/24 04:43:13;;;;;;;4.65;2.25;;;;;;;4.88;55.54;102446.41;4991857;28;20054;-90
2021/11/24 04:45:39;;;;;;;6.63;2.92;;;;;;;4.92;55.76;102449.09;5006744;28;20030;-92
2021/11/24 04:48:05;;;;;;;5.28;3.00;;;;;;;4.93;55.81;102444.75;4985920;28;20038;-88
2021/11/24 04:50:31;;;;;;;5.90;3.13;;;;;;;4.67;56.72;102437.56;4991655;28;20044;-91
2021/11/24 04:52:56;;;;;;;5.43;2.45;;;;;;;4.88;56.05;102438.66;4988123;28;20321;-92
2021/11/24 04:55:22;;;;;;;6.28;2.85;;;;;;;4.91;55.98;102438.69;4989720;28;20131;-91
2021/11/24 04:57:48;;;;;;;4.18;2.42;;;;;;;4.95;56.01;102441.31;5002105;28;20053;-90
2021/11/24 05:00:18;;;;;;;3.00;2.20;;;;;;;5.04;56.02;102448.31;5007105;28;20149;-94
2021/11/24 05:02:45;;;;;;;5.32;2.90;;;;;;;5.09;55.85;102444.03;5011080;28;20125;-89
2021/11/24 05:05:10;;;;;;;6.15;3.05;;;;;;;5.05;56.03;102434.47;5000130;28;20099;-93
2021/11/24 05:07:37;;;;;;;3.92;2.25;;;;;;;4.83;56.73;102444.66;4985688;28;20050;-89
2021/11/24 05:10:03;;;;;;;4.63;3.00;;;;;;;4.97;56.77;102436.16;4988892;28;20077;-91
2021/11/24 05:12:29;;;;;;;5.53;2.17;;;;;;;5.07;56.20;102434.50;5018143;28;20422;-90
2021/11/24 05:14:55;;;;;;;3.55;2.55;;;;;;;5.07;55.83;102427.59;4991159;28;20033;-91
2021/11/24 05:17:24;;;;;;;3.78;2.47;;;;;;;4.92;55.93;102422.28;4990434;28;20117;-91
2021/11/24 05:19:51;;;;;;;3.13;2.33;;;;;;;5.00;55.74;102418.91;4987594;28;20045;-90
2021/11/24 05:22:18;;;;;;;5.22;2.50;;;;;;;4.93;55.81;102424.03;4988755;28;20040;-92
2021/11/24 05:24:44;;;;;;;3.40;2.35;;;;;;;5.02;55.87;102418.94;5005461;28;20414;-92
2021/11/24 05:27:10;;;;;;;2.58;1.77;;;;;;;4.88;56.77;102423.09;4993926;28;20164;-90
2021/11/24 05:29:36;;;;;;;3.45;1.45;;;;;;;5.02;56.53;102413.75;5004524;28;20053;-90
2021/11/24 05:32:01;;;;;;;3.80;2.38;;;;;;;5.17;56.08;102421.63;4986586;28;20487;-92
2021/11/24 05:34:27;;;;;;;2.72;1.65;;;;;;;5.02;56.67;102416.34;4985676;28;20053;-93
2021/11/24 05:36:53;;;;;;;3.58;1.80;;;;;;;5.16;56.57;102413.84;5004853;28;20073;-91
2021/11/24 05:39:19;;;;;;;3.20;1.45;;;;;;;5.14;55.93;102418.13;5005334;28;20038;-88
2021/11/24 05:41:44;;;;;;;2.90;2.08;;;;;;;5.05;56.37;102413.75;4985313;28;20041;-92
2021/11/24 05:44:26;;;;;;;3.15;1.00;;;;;;;5.20;56.15;102418.19;4987453;28;20141;-92
2021/11/24 05:46:59;;;;;;;4.07;1.45;;;;;;;5.16;56.55;102408.66;4986361;28;20034;-89
2021/11/24 05:49:26;;;;;;;6.05;1.10;;;;;;;4.60;58.53;102402.97;4991191;28;20495;-92
2021/11/24 05:51:53;;;;;;;1.95;0.93;;;;;;;5.05;57.34;102393.88;4993510;28;20046;-91
2021/11/24 05:54:19;;;;;;;4.18;1.40;;;;;;;5.18;56.93;102392.25;5002061;28;20022;-89
2021/11/24 05:56:45;;;;;;;2.05;1.17;;;;;;;5.12;57.28;102389.59;5004623;28;20374;-92
2021/11/24 05:59:14;;;;;;;5.30;1.52;;;;;;;5.05;57.46;102387.84;5007437;28;20038;-90
2021/11/24 06:01:39;;;;;;;4.13;1.58;;;;;;;4.61;59.12;102380.56;4985399;28;20041;-88
2021/11/24 06:04:06;;;;;;;5.65;1.48;;;;;;;4.90;58.41;102377.34;5002521;28;20061;-91
2021/11/24 06:06:33;;;;;;;3.67;1.00;;;;;;;4.99;57.89;102372.28;4993342;28;20105;-92
2021/11/24 06:08:59;;;;;;;1.85;1.02;;;;;;;5.24;57.60;102374.16;5006066;28;20042;-89
2021/11/24 06:11:25;;;;;;;2.97;0.80;;;;;;;5.43;56.99;102369.06;5004927;28;20548;-91
2021/11/24 06:13:51;;;;;;;4.65;0.70;;;;;;;5.19;56.98;102367.19;5001820;28;20049;-92
2021/11/24 06:16:17;;;;;;;1.95;0.93;;;;;;;5.38;56.70;102370.78;4993624;28;20041;-88
2021/11/24 06:18:43;;;;;;;2.65;0.93;;;;;;;5.15;57.52;102361.13;4989533;28;20127;-91
2021/11/24 06:21:09;;;;;;;4.28;1.20;;;;;;;5.15;57.46;102365.47;4985713;28;20037;-93
2021/11/24 06:23:39;;;;;;;6.82;1.70;;;;;;;5.51;56.70;102364.78;5005634;28;20042;-91
2021/11/24 06:26:06;;;;;;;4.15;2.00;;;;;;;5.21;57.01;102374.16;5008796;28;20037;-91
2021/11/24 06:28:32;;;;;;;7.55;1.67;;;;;;;5.30;57.15;102372.44;4986035;28;20053;-90
2021/11/24 06:30:58;;;;;;;2.63;1.60;;;;;;;5.27;57.43;102368.13;5016718;28;20105;-91
2021/11/24 06:33:26;;;;;;;2.70;1.65;;;;;;;5.05;57.67;102367.09;5001162;28;20060;-91
2021/11/24 06:35:52;;;;;;;2.65;1.65;;;;;;;5.39;56.47;102364.72;5006060;28;20072;-93
2021/11/24 06:38:17;;;;;;;3.03;1.73;;;;;;;5.57;56.70;102361.34;5003282;28;20049;-91
2021/11/24 06:40:45;;;;;;;6.97;2.20;;;;;;;5.67;56.15;102364.00;5002222;28;20034;-91
2021/11/24 06:43:10;;;;;;;5.53;2.20;;;;;;;5.35;56.71;102365.59;4986954;28;20034;-91
2021/11/24 06:45:36;;;;;;;4.85;2.30;;;;;;;5.64;56.27;102363.13;4987475;28;20196;-90
2021/11/24 06:48:02;;;;;;;4.30;2.58;;;;;;;5.69;56.00;102363.16;5001435;28;20448;-92
2021/11/24 06:50:29;;;;;;;6.78;2.35;;;;;;;5.56;56.41;102368.28;4990206;28;20034;-93
2021/11/24 06:52:54;;;;;;;3.15;1.42;;;;;;;5.71;56.18;102358.84;4988088;28;20073;-90
2021/11/24 06:55:20;;;;;;;5.68;2.30;;;;;;;5.52;56.18;102356.13;4988448;28;20037;-91
2021/11/24 06:57:45;;;;;;;4.00;1.88;;;;;;;5.55;56.37;102358.78;5003187;28;20038;-89
2021/11/24 07:00:11;;;;;;;3.10;1.77;;;;;;;5.43;56.94;102363.88;5003894;28;20033;-91
2021/11/24 07:02:38;;;;;;;4.20;1.80;;;;;;;5.74;56.17;102348.47;5003040;28;20041;-92
2021/11/24 07:05:04;;;;;;;2.67;1.52;;;;;;;5.66;55.96;102353.63;4991168;28;20029;-91
2021/11/24 07:07:30;;;;;;;6.97;2.17;;;;;;;5.58;55.90;102356.19;4993416;28;20042;-91
2021/11/24 07:09:56;;;;;;;5.50;2.58;;;;;;;5.59;56.13;102355.34;4986222;28;20033;-90
2021/11/24 07:12:24;;;;;;;4.88;2.95;;;;;;;5.14;56.94;102346.44;4996705;28;20052;-93
2021/11/24 07:14:52;;;;;;;4.80;3.10;;;;;;;5.47;56.56;102352.66;4991304;28;20109;-91
2021/11/24 07:17:18;;;;;;;8.00;3.50;;;;;;;5.48;56.03;102350.94;4999084;28;20065;-90
2021/11/24 07:19:44;;;;;;;7.47;3.33;;;;;;;5.63;56.00;102358.78;4986424;28;20446;-89
2021/11/24 07:22:12;;;;;;;6.22;3.45;;;;;;;5.54;56.14;102357.03;5017744;28;20048;-92
2021/11/24 07:24:38;;;;;;;7.43;4.68;;;;;;;5.38;56.44;102363.00;4982454;28;20046;-89
2021/11/24 07:27:04;;;;;;;6.32;4.10;;;;;;;5.61;55.97;102356.22;4984013;28;20061;-89
2021/11/24 07:29:30;;;;;;;4.72;3.70;;;;;;;5.44;56.36;102363.03;4983542;28;20029;-90
2021/11/24 07:31:55;;;;;;;9.23;3.70;;;;;;;5.44;56.48;102360.44;5020370;28;20478;-91
2021/11/24 07:34:21;;;;;;;6.70;4.15;;;;;;;5.54;56.06;102346.66;4986185;28;20044;-89
2021/11/24 07:36:47;;;;;;;8.15;4.05;;;;;;;5.38;56.68;102347.44;4982968;28;20413;-91
2021/11/24 07:39:12;;;;;;;4.88;3.40;;;;;;;5.57;55.76;102349.28;5005477;28;20044;-90
2021/11/24 07:41:38;;;;;;;5.75;3.58;;;;;;;5.56;55.38;102339.75;4986600;28;20037;-90
2021/11/24 07:44:04;;;;;;;6.25;3.80;;;;;;;5.73;55.47;102346.75;5006613;28;20040;-90
2021/11/24 07:46:31;;;;;;;8.07;3.88;;;;;;;5.48;55.74;102350.94;4999481;28;20038;-92
2021/11/24 07:49:04;;;;;;;5.35;3.75;;;;;;;5.59;55.73;102338.88;4993725;28;20034;-90
2021/11/24 07:51:35;;;;;;;4.40;3.67;;;;;;;5.62;55.74;102344.97;5008471;28;20439;-89
2021/11/24 07:54:03;;;;;;;6.28;3.15;;;;;;;5.44;55.98;102334.50;4982218;28;20053;-90
2021/11/24 07:56:38;;;;;;;11.30;3.58;;;;;;;5.59;55.42;102339.78;4990506;28;20125;-92
2021/11/24 07:59:04;;;;;;;;;;;;;;;5.45;56.13;102341.41;5001974;28;20257;-90
2021/11/24 08:01:30;;;;;;;6.13;3.13;;;;;;;5.39;56.32;102341.38;4995690;28;19990;-91
2021/11/24 08:03:56;;;;;;;8.20;3.38;;;;;;;5.69;55.62;102340.66;5006302;28;20061;-89
2021/11/24 08:06:22;;;;;;;7.03;2.40;;;;;;;4.98;56.53;102334.22;4999669;28;20029;-91
2021/11/24 08:08:48;;;;;;;3.90;2.75;;;;;;;5.61;55.65;102335.47;4994040;28;20053;-90
2021/11/24 08:11:14;;;;;;;4.97;2.50;;;;;;;5.45;55.95;102331.91;4996212;28;20305;-89
2021/11/24 08:13:47;;;;;;;3.53;2.80;;;;;;;5.77;55.18;102326.00;5009447;28;20113;-90
2021/11/24 08:16:15;;;;;;;5.32;2.85;;;;;;;5.42;55.89;102331.03;5008962;28;20033;-90
2021/11/24 08:18:41;;;;;;;5.82;4.25;;;;;;;5.36;55.20;102313.72;5008123;28;20157;-92
2021/11/24 08:21:16;;;;;;;7.43;4.13;;;;;;;5.47;55.68;102324.16;4996976;28;20025;-89
2021/11/24 08:23:50;;;;;;;4.32;2.65;;;;;;;5.76;54.96;102319.06;5007219;28;20049;-89
2021/11/24 08:26:19;;;;;;;3.05;2.17;;;;;;;5.91;54.45;102322.59;4996618;28;20034;-90
2021/11/24 08:28:47;;;;;;;4.57;2.33;;;;;;;5.84;54.59;102324.31;4991641;28;20236;-88
2021/11/24 08:31:13;;;;;;;4.13;2.05;;;;;;;5.67;54.75;102319.91;5022665;28;20038;-89
2021/11/24 08:33:39;;;;;;;3.72;1.80;;;;;;;5.73;54.74;102321.66;4990863;28;20799;-91
2021/11/24 08:36:05;;;;;;;6.78;3.28;;;;;;;5.86;54.20;102319.97;4992220;28;20100;-93
2021/11/24 08:38:31;;;;;;;7.38;3.10;;;;;;;5.77;54.39;102315.63;4995111;28;20042;-90
2021/11/24 08:40:57;;;;;;;4.10;2.22;;;;;;;5.98;54.00;102306.16;4985090;28;20287;-90
2021/11/24 08:43:23;;;;;;;3.28;2.10;;;;;;;5.91;53.63;102304.41;5004840;28;20049;-90
2021/11/24 08:45:49;;;;;;;3.90;2.38;;;;;;;5.69;54.60;102301.75;5015649;28;20033;-89
2021/11/24 08:48:19;;;;;;;5.47;2.60;;;;;;;5.90;53.63;102305.28;4989373;28;20111;-88
2021/11/24 08:50:45;;;;;;;5.22;2.20;;;;;;;5.86;54.16;102299.22;4993929;28;20111;-90
2021/11/24 08:53:12;;;;;;;4.05;2.17;;;;;;;6.06;53.47;102291.44;5008442;28;20104;-89
2021/11/24 08:55:40;;;;;;;3.47;2.08;;;;;;;5.90;53.64;102295.75;4995981;28;20033;-89
2021/11/24 08:58:06;;;;;;;3.33;2.35;;;;;;;6.06;53.70;102287.16;5009430;28;20054;-92
2021/11/24 09:00:34;;;;;;;3.63;1.88;;;;;;;6.17;53.28;102296.66;5009745;28;20038;-91
2021/11/24 09:03:00;;;;;;;4.43;2.13;;;;;;;6.14;53.03;102291.47;4989644;28;20041;-91
2021/11/24 09:05:26;;;;;;;3.00;1.38;;;;;;;5.73;54.25;102292.25;5009404;28;20072;-89
2021/11/24 09:07:52;;;;;;;3.33;1.73;;;;;;;5.47;54.22;102293.03;4990494;28;20045;-89
2021/11/24 09:10:20;;;;;;;2.92;1.70;;;;;;;6.02;53.54;102298.38;5009050;28;20036;-92
2021/11/24 09:12:46;;;;;;;2.80;1.80;;;;;;;5.98;53.17;102286.25;5005033;28;20498;-90
2021/11/24 09:15:12;;;;;;;1.92;1.38;;;;;;;5.54;53.96;102289.59;4986152;28;20053;-92
2021/11/24 09:17:38;;;;;;;2.90;1.75;;;;;;;5.77;53.39;102299.16;5022555;28;20526;-89
2021/11/24 09:20:04;;;;;;;2.90;2.15;;;;;;;6.10;53.18;102293.19;5013585;28;20030;-91
2021/11/24 09:22:30;;;;;;;5.57;2.33;;;;;;;6.03;53.20;102296.66;4997238;28;20050;-89
2021/11/24 09:24:59;;;;;;;2.65;2.30;;;;;;;6.18;52.56;102293.22;4988463;28;20044;-90
2021/11/24 09:27:31;;;;;;;3.28;1.90;;;;;;;5.08;55.58;102284.22;4987895;28;20049;-88
2021/11/24 09:29:58;;;;;;;3.30;2.35;;;;;;;6.06;52.92;102284.56;4985574;28;20041;-92
2021/11/24 09:32:25;;;;;;;7.72;2.22;;;;;;;6.08;52.64;102288.03;5009493;28;20048;-92
2021/11/24 09:34:51;;;;;;;5.25;2.20;;;;;;;5.37;54.66;102280.88;5002920;28;20030;-93
2021/11/24 09:37:17;;;;;;;3.03;1.67;;;;;;;5.52;53.82;102280.94;4982738;28;20042;-91
2021/11/24 09:39:42;;;;;;;3.67;1.80;;;;;;;6.14;52.75;102281.09;5001272;28;20102;-90
2021/11/24 09:42:10;;;;;;;2.80;1.17;;;;;;;6.12;52.75;102288.00;5017765;28;20046;-90
2021/11/24 09:44:37;;;;;;;2.75;1.65;;;;;;;5.91;53.07;102273.28;5002907;28;20129;-90
2021/11/24 09:47:07;;;;;;;4.80;1.73;;;;;;;5.90;53.28;102269.78;4986313;28;20068;-89
2021/11/24 09:49:35;;;;;;;4.00;1.40;;;;;;;6.02;53.03;102261.19;4988034;28;20064;-90
2021/11/24 09:52:02;;;;;;;3.67;1.83;;;;;;;6.22;51.98;102269.00;5005589;28;20038;-91
2021/11/24 09:54:27;;;;;;;3.10;1.77;;;;;;;6.54;51.91;102268.16;5004157;28;20309;-91
2021/11/24 09:56:53;;;;;;;2.35;1.40;;;;;;;6.13;52.12;102263.78;5002809;28;20037;-89
2021/11/24 09:59:19;;;;;;;9.77;1.90;;;;;;;6.07;52.64;102264.66;5003884;28;20136;-91
2021/11/24 10:01:45;;;;;;;9.63;1.52;;;;;;;6.37;51.79;102248.22;4990654;28;20046;-90
2021/11/24 10:04:11;;;;;;;1.95;1.17;;;;;;;6.45;51.80;102256.88;5000699;28;20036;-91
2021/11/24 10:06:39;;;;;;;2.67;1.73;;;;;;;6.48;51.44;102246.53;4984587;28;20036;-91
2021/11/24 10:09:05;;;;;;;2.00;1.10;;;;;;;6.49;51.27;102237.00;5018303;28;20580;-90
2021/11/24 10:11:31;;;;;;;2.53;1.52;;;;;;;6.56;51.14;102233.50;4987679;28;20064;-91
2021/11/24 10:13:59;;;;;;;7.07;1.60;;;;;;;5.76;53.12;102228.25;4978406;28;20258;-90
2021/11/24 10:16:28;;;;;;;5.88;1.73;;;;;;;5.99;52.77;102236.06;5002429;28;20140;-90
2021/11/24 10:19:11;;;;;;;4.07;1.50;;;;;;;5.64;53.24;102236.91;4986785;28;20049;-91
2021/11/24 10:21:56;;;;;;;4.80;1.58;;;;;;;6.32;51.82;102236.97;4983775;28;20426;-90
2021/11/24 10:24:32;;;;;;;3.25;1.40;;;;;;;6.13;52.27;102230.91;5005351;28;20038;-92
2021/11/24 10:26:59;;;;;;;8.32;1.60;;;;;;;6.22;51.93;102227.44;4986768;28;20080;-90
2021/11/24 10:29:25;;;;;;;2.55;1.48;;;;;;;6.47;51.04;102221.41;4992336;28;20029;-91
2021/11/24 10:31:57;;;;;;;2.97;1.48;;;;;;;6.59;50.92;102219.66;4992665;28;20041;-91
2021/11/24 10:34:31;;;;;;;7.45;1.23;;;;;;;6.72;50.20;102218.75;4991195;28;20107;-91
2021/11/24 10:37:10;;;;;;;5.78;1.88;;;;;;;6.68;50.73;102212.69;4994489;28;20100;-91
2021/11/24 10:39:42;;;;;;;3.17;1.60;;;;;;;6.89;50.50;102209.19;5011873;28;20363;-89
2021/11/24 10:42:07;;;;;;;6.78;1.42;;;;;;;6.97;50.19;102203.09;4997797;28;20045;-91
2021/11/24 10:44:35;;;;;;;4.38;1.70;;;;;;;6.96;49.82;102194.44;5005358;28;20043;-91
2021/11/24 10:47:03;;;;;;;3.33;1.42;;;;;;;6.91;50.63;102189.25;4999447;28;20053;-90
2021/11/24 10:49:37;;;;;;;2.15;1.27;;;;;;;7.11;49.94;102188.31;4990434;28;20097;-90
2021/11/24 10:52:37;;;;;;;3.67;1.40;;;;;;;6.86;49.90;102180.63;5014946;28;20060;-89
2021/11/24 10:55:11;;;;;;;2.15;1.42;;;;;;;6.88;50.29;102178.00;5001630;28;20037;-91
2021/11/24 10:57:46;;;;;;;5.20;1.25;;;;;;;6.86;49.98;102180.63;4987958;28;20038;-90
2021/11/24 11:00:22;;;;;;;4.53;1.33;;;;;;;6.74;49.90;102174.59;5005487;28;20575;-90
2021/11/24 11:02:49;;;;;;;3.33;1.40;;;;;;;6.99;49.27;102172.75;4982252;28;20057;-89
2021/11/24 11:05:22;;;;;;;4.80;1.27;;;;;;;6.96;49.98;102167.56;4986877;28;20030;-88
2021/11/24 11:07:52;;;;;;;2.38;1.10;;;;;;;7.09;49.15;102162.31;5000636;28;20050;-90
2021/11/24 11:10:22;;;;;;;3.78;1.48;;;;;;;6.83;49.86;102149.41;5003043;28;20029;-89
2021/11/24 11:12:52;;;;;;;3.72;0.93;;;;;;;7.30;49.23;102143.13;5004739;28;20383;-90
2021/11/24 11:15:38;;;;;;;2.97;1.33;;;;;;;7.34;48.93;102151.78;5002591;28;20021;-89
2021/11/24 11:18:07;;;;;;;4.80;1.42;;;;;;;7.30;48.72;102150.91;4980420;28;20046;-90
2021/11/24 11:20:41;;;;;;;7.80;0.95;;;;;;;7.35;48.63;102144.81;5017757;28;20033;-89
2021/11/24 11:23:14;;;;;;;3.22;1.25;;;;;;;6.99;48.84;102144.16;5012306;28;20046;-90
2021/11/24 11:25:51;;;;;;;1.70;1.55;;;;;;;7.33;48.56;102135.31;4993325;28;20084;-93
2021/11/24 11:28:18;;;;;;;1.70;1.30;;;;;;;7.41;48.06;102137.84;4997137;28;20042;-89
2021/11/24 11:30:46;;;;;;;2.38;1.52;;;;;;;6.74;49.71;102139.06;5001258;28;20038;-90
2021/11/24 11:33:14;;;;;;;1.23;1.02;;;;;;;6.53;50.17;102134.81;5008492;28;20134;-92